Alder, Washington
Current Conditions -  °F | °C
As of 12:37 PM on Friday 21 Nov 2014 (Local Time) from KGRF Reporting Station
Light Rain Light Rain  
Wind Chill: 50°   Ceiling: 3200
Heat Index: 50°   Visibility: 10mi
Dew Point: 50°   Wind: 8mph
Humidity: 100%   Direction: 110°ESE
Pressure: 29.56"   Gusts: NA
Location:  46.8687°N, 122.208°W
Report Text: KGRF 212037Z AUTO 11007KT 10SM -RA BKN032 OVC043 10/10 A2956 RMK AO2
Loading
Personal Weather Stations






























Interactive Weather Map New forecast layout! Learn more

10-Day Weather Forecast

Advertisements
Track Severe Weather on mobile